createdAt,value
2023-04-25T00:00:44.444Z,28.06
2023-04-25T00:01:44.622Z,28.04
2023-04-25T00:02:44.530Z,28.04
2023-04-25T00:03:44.648Z,28.08
2023-04-25T00:04:44.783Z,28.04
2023-04-25T00:05:44.577Z,28.05
2023-04-25T00:06:44.503Z,28.08
2023-04-25T00:07:44.532Z,28.05
2023-04-25T00:08:44.416Z,28.10
2023-04-25T00:09:44.414Z,28.07
2023-04-25T00:10:44.439Z,28.11
2023-04-25T00:11:44.352Z,28.11
2023-04-25T00:12:44.374Z,28.04
2023-04-25T00:13:44.385Z,28.07
2023-04-25T00:14:44.351Z,28.04
2023-04-25T00:15:44.385Z,28.06
2023-04-25T00:16:44.341Z,28.00
2023-04-25T00:17:44.387Z,28.01
2023-04-25T00:18:44.322Z,28.06
2023-04-25T00:19:44.387Z,28.09
2023-04-25T00:20:44.674Z,28.04
2023-04-25T00:21:44.343Z,28.06
2023-04-25T00:22:44.293Z,28.07
2023-04-25T00:23:44.304Z,28.03
2023-04-25T00:24:44.270Z,28.07
2023-04-25T00:25:44.301Z,28.03
2023-04-25T00:26:44.268Z,28.02
2023-04-25T00:27:44.281Z,28.03
2023-04-25T00:28:44.261Z,28.03
2023-04-25T00:29:44.273Z,28.07
2023-04-25T00:30:44.246Z,28.04
2023-04-25T00:31:44.234Z,28.04
2023-04-25T00:32:44.281Z,28.10
2023-04-25T00:33:44.207Z,28.06
2023-04-25T00:34:44.199Z,28.07
2023-04-25T00:35:44.179Z,28.03
2023-04-25T00:36:44.187Z,28.04
2023-04-25T00:37:44.232Z,28.07
2023-04-25T00:38:44.177Z,28.03
2023-04-25T00:39:44.209Z,28.09
2023-04-25T00:40:44.158Z,28.07
2023-04-25T00:41:44.148Z,28.07
2023-04-25T00:42:44.154Z,28.07
2023-04-25T00:43:44.123Z,28.09
2023-04-25T00:44:44.123Z,28.07
2023-04-25T00:45:44.164Z,28.04
2023-04-25T00:46:44.133Z,28.11
2023-04-25T00:47:44.206Z,28.07
2023-04-25T00:48:44.110Z,28.08
2023-04-25T00:49:44.126Z,28.07
2023-04-25T00:50:44.210Z,28.03
2023-04-25T00:51:44.077Z,28.11
2023-04-25T00:52:44.072Z,28.09
2023-04-25T00:53:44.728Z,28.10
2023-04-25T00:54:44.089Z,28.07
2023-04-25T00:55:44.043Z,28.07
2023-04-25T00:56:44.050Z,28.07
2023-04-25T00:57:44.030Z,28.05
2023-04-25T00:58:44.142Z,28.10
2023-04-25T00:59:44.005Z,28.10
2023-04-25T01:00:44.096Z,28.10
2023-04-25T01:01:45.153Z,28.03
2023-04-25T01:02:44.290Z,28.09
2023-04-25T01:03:44.164Z,28.10
2023-04-25T01:04:43.993Z,28.12
2023-04-25T01:05:44.013Z,28.11
2023-04-25T01:06:43.982Z,28.10
2023-04-25T01:07:43.952Z,28.10
2023-04-25T01:08:43.951Z,28.14
2023-04-25T01:09:44.198Z,28.11
2023-04-25T01:10:43.955Z,28.07
2023-04-25T01:11:43.919Z,28.15
2023-04-25T01:12:43.960Z,28.14
2023-04-25T01:13:43.922Z,28.14
2023-04-25T01:14:43.953Z,28.15
2023-04-25T01:15:43.908Z,28.15
2023-04-25T01:16:43.963Z,28.15
2023-04-25T01:17:43.979Z,28.14
2023-04-25T01:18:43.929Z,28.17
2023-04-25T01:19:45.669Z,28.21
2023-04-25T01:20:43.951Z,28.18
2023-04-25T01:21:43.967Z,28.14
2023-04-25T01:22:44.022Z,28.21
2023-04-25T01:23:44.007Z,28.14
2023-04-25T01:24:44.013Z,28.14
2023-04-25T01:25:43.978Z,28.07
2023-04-25T01:26:44.010Z,28.12
2023-04-25T01:27:44.049Z,28.17
2023-04-25T01:28:44.040Z,28.17
2023-04-25T01:29:44.028Z,28.18
2023-04-25T01:30:44.119Z,28.21
2023-04-25T01:31:44.119Z,28.15
2023-04-25T01:32:44.172Z,28.17
2023-04-25T01:33:44.142Z,28.20
2023-04-25T01:34:44.142Z,28.17
2023-04-25T01:35:44.268Z,28.18
2023-04-25T01:36:44.172Z,28.18
2023-04-25T01:37:44.223Z,28.20
2023-04-25T01:38:44.213Z,28.22
2023-04-25T01:39:44.244Z,28.21
2023-04-25T01:40:44.269Z,28.19
2023-04-25T01:41:44.284Z,28.26
2023-04-25T01:42:44.290Z,28.22
2023-04-25T01:43:44.311Z,28.18
2023-04-25T01:44:44.324Z,28.22
2023-04-25T01:45:44.378Z,28.23
2023-04-25T01:46:44.380Z,28.22
2023-04-25T01:47:44.426Z,28.22
2023-04-25T01:48:44.397Z,28.23
2023-04-25T01:49:44.417Z,28.22
2023-04-25T01:50:44.422Z,28.22
2023-04-25T01:51:44.466Z,28.25
2023-04-25T01:52:44.435Z,28.23
2023-04-25T01:53:44.623Z,28.28
2023-04-25T01:54:44.463Z,28.20
2023-04-25T01:55:45.210Z,28.21
2023-04-25T01:56:44.570Z,28.29
2023-04-25T01:57:44.529Z,28.29
2023-04-25T01:58:44.549Z,28.28
2023-04-25T01:59:44.566Z,28.28
2023-04-25T02:00:44.573Z,28.26
2023-04-25T02:01:44.646Z,28.26
2023-04-25T02:02:44.758Z,28.29
2023-04-25T02:03:44.710Z,28.28
2023-04-25T02:04:44.848Z,28.25
2023-04-25T02:05:44.593Z,28.35
2023-04-25T02:06:44.629Z,28.25
2023-04-25T02:07:44.666Z,28.33
2023-04-25T02:08:44.641Z,28.29
2023-04-25T02:09:44.672Z,28.29
2023-04-25T02:10:44.665Z,28.28
2023-04-25T02:11:44.696Z,28.29
2023-04-25T02:12:44.691Z,28.29
2023-04-25T02:13:44.706Z,28.33
2023-04-25T02:14:44.728Z,28.26
2023-04-25T02:15:44.751Z,28.33
2023-04-25T02:16:45.251Z,28.30
2023-04-25T02:17:44.839Z,28.26
2023-04-25T02:18:44.772Z,28.31
2023-04-25T02:19:44.780Z,28.30
2023-04-25T02:20:44.796Z,28.32
2023-04-25T02:21:44.828Z,28.32
2023-04-25T02:22:44.825Z,28.36
2023-04-25T02:23:44.838Z,28.32
2023-04-25T02:24:44.818Z,28.38
2023-04-25T02:25:44.828Z,28.33
2023-04-25T02:26:44.853Z,28.30
2023-04-25T02:27:44.884Z,28.40
2023-04-25T02:28:44.899Z,28.33
2023-04-25T02:29:44.856Z,28.32
2023-04-25T02:30:44.857Z,28.38
2023-04-25T02:31:44.956Z,28.33
2023-04-25T02:32:44.954Z,28.36
2023-04-25T02:33:44.929Z,28.39
2023-04-25T02:34:44.879Z,28.33
2023-04-25T02:35:44.882Z,28.35
2023-04-25T02:36:44.888Z,28.36
2023-04-25T02:37:44.907Z,28.39
2023-04-25T02:38:44.925Z,28.38
2023-04-25T02:39:44.924Z,28.39
2023-04-25T02:40:44.915Z,28.38
2023-04-25T02:41:44.921Z,28.36
2023-04-25T02:42:44.928Z,28.35
2023-04-25T02:43:44.936Z,28.35
2023-04-25T02:44:44.970Z,28.35
2023-04-25T02:45:44.956Z,28.36
2023-04-25T02:46:45.013Z,28.35
2023-04-25T02:47:44.976Z,28.38
2023-04-25T02:48:44.968Z,28.38
2023-04-25T02:49:44.972Z,28.41
2023-04-25T02:50:44.947Z,28.35
2023-04-25T02:51:44.970Z,28.35
2023-04-25T02:52:44.984Z,28.36
2023-04-25T02:53:44.996Z,28.36
2023-04-25T02:54:45.005Z,28.38
2023-04-25T02:55:44.982Z,28.40
2023-04-25T02:56:45.052Z,28.38
2023-04-25T02:57:45.025Z,28.40
2023-04-25T02:58:45.054Z,28.36
2023-04-25T02:59:45.253Z,28.39
2023-04-25T03:00:45.117Z,28.36
2023-04-25T03:01:45.123Z,28.39
2023-04-25T03:02:45.154Z,28.36
2023-04-25T03:03:45.202Z,28.38
2023-04-25T03:04:45.215Z,28.39
2023-04-25T03:05:45.230Z,28.38
2023-04-25T03:06:45.205Z,28.36
2023-04-25T03:07:45.195Z,28.39
2023-04-25T03:08:45.226Z,28.40
2023-04-25T03:09:45.269Z,28.42
2023-04-25T03:10:45.266Z,28.39
2023-04-25T03:11:45.272Z,28.35
2023-04-25T03:12:45.298Z,28.43
2023-04-25T03:13:45.349Z,28.46
2023-04-25T03:14:45.340Z,28.44
2023-04-25T03:15:45.305Z,28.44
2023-04-25T03:16:45.429Z,28.43
2023-04-25T03:17:45.355Z,28.42
2023-04-25T03:18:45.313Z,28.41
2023-04-25T03:19:45.340Z,28.41
2023-04-25T03:20:45.351Z,28.46
2023-04-25T03:21:45.379Z,28.44
2023-04-25T03:22:45.337Z,28.44
2023-04-25T03:23:45.368Z,28.41
2023-04-25T03:24:45.365Z,28.49
2023-04-25T03:25:45.390Z,28.44
2023-04-25T03:26:45.403Z,28.44
2023-04-25T03:27:45.427Z,28.49
2023-04-25T03:28:45.446Z,28.49
2023-04-25T03:29:45.434Z,28.46
2023-04-25T03:30:45.540Z,28.46
2023-04-25T03:31:45.549Z,28.46
2023-04-25T03:32:45.498Z,28.46
2023-04-25T03:33:45.506Z,28.41
2023-04-25T03:34:45.505Z,28.43
2023-04-25T03:35:45.526Z,28.47
2023-04-25T03:36:45.546Z,28.46
2023-04-25T03:37:45.556Z,28.43
2023-04-25T03:38:45.549Z,28.49
2023-04-25T03:39:45.601Z,28.47
2023-04-25T03:40:45.626Z,28.47
2023-04-25T03:41:45.632Z,28.43
2023-04-25T03:42:45.641Z,28.46
2023-04-25T03:43:45.629Z,28.47
2023-04-25T03:44:45.646Z,28.40
2023-04-25T03:45:45.698Z,28.43
2023-04-25T03:46:45.667Z,28.46
2023-04-25T03:47:45.699Z,28.49
2023-04-25T03:48:45.679Z,28.42
2023-04-25T03:49:45.707Z,28.46
2023-04-25T03:50:45.711Z,28.49
2023-04-25T03:51:45.751Z,28.50
2023-04-25T03:52:45.752Z,28.44
2023-04-25T03:53:45.752Z,28.46
2023-04-25T03:54:45.785Z,28.46
2023-04-25T03:55:45.775Z,28.47
2023-04-25T03:56:45.827Z,28.49
2023-04-25T03:57:45.796Z,28.47
2023-04-25T03:58:45.799Z,28.43
2023-04-25T03:59:45.818Z,28.47
2023-04-25T04:00:45.854Z,28.46
2023-04-25T04:01:45.865Z,28.43
2023-04-25T04:02:46.020Z,28.43
2023-04-25T04:03:46.098Z,28.43
2023-04-25T04:04:46.085Z,28.44
2023-04-25T04:05:45.957Z,28.46
2023-04-25T04:06:45.914Z,28.42
2023-04-25T04:07:45.928Z,28.45
2023-04-25T04:08:45.886Z,28.43
2023-04-25T04:09:45.921Z,28.50
2023-04-25T04:10:45.922Z,28.44
2023-04-25T04:11:45.950Z,28.47
2023-04-25T04:12:45.951Z,28.46
2023-04-25T04:13:45.986Z,28.46
2023-04-25T04:14:46.018Z,28.47
2023-04-25T04:15:46.096Z,28.46
2023-04-25T04:16:46.036Z,28.48
2023-04-25T04:17:46.153Z,28.46
2023-04-25T04:18:46.082Z,28.47
2023-04-25T04:19:46.103Z,28.49
2023-04-25T04:20:46.110Z,28.46
2023-04-25T04:21:46.150Z,28.45
2023-04-25T04:22:46.141Z,28.43
2023-04-25T04:23:46.168Z,28.44
2023-04-25T04:24:46.204Z,28.42
2023-04-25T04:25:46.198Z,28.42
2023-04-25T04:26:46.238Z,28.45
2023-04-25T04:27:46.756Z,28.40
2023-04-25T04:28:46.254Z,28.47
2023-04-25T04:29:46.295Z,28.43
2023-04-25T04:30:46.294Z,28.47
2023-04-25T04:31:46.297Z,28.44
2023-04-25T04:32:47.439Z,28.45
2023-04-25T04:33:46.469Z,28.47
2023-04-25T04:34:46.465Z,28.45
2023-04-25T04:35:46.502Z,28.46
2023-04-25T04:36:46.541Z,28.43
2023-04-25T04:37:46.580Z,28.50
2023-04-25T04:38:46.566Z,28.44
2023-04-25T04:39:46.622Z,28.53
2023-04-25T04:40:46.578Z,28.43
2023-04-25T04:41:46.657Z,28.43
2023-04-25T04:42:46.622Z,28.43
2023-04-25T04:43:46.638Z,28.45
2023-04-25T04:44:46.710Z,28.43
2023-04-25T04:45:46.659Z,28.47
2023-04-25T04:46:46.707Z,28.46
2023-04-25T04:47:46.771Z,28.42
2023-04-25T04:48:46.724Z,28.46
2023-04-25T04:49:46.773Z,28.45
2023-04-25T04:50:46.823Z,28.43
2023-04-25T04:51:46.809Z,28.40
2023-04-25T04:52:46.798Z,28.41
2023-04-25T04:53:46.826Z,28.40
2023-04-25T04:54:46.861Z,28.41
2023-04-25T04:55:46.871Z,28.40
2023-04-25T04:56:46.880Z,28.40
2023-04-25T04:57:46.906Z,28.36
2023-04-25T04:58:46.917Z,28.36
2023-04-25T04:59:46.928Z,28.40
2023-04-25T05:00:46.944Z,28.36
2023-04-25T05:01:46.961Z,28.39
2023-04-25T05:02:47.117Z,28.32
2023-04-25T05:03:47.131Z,28.39
2023-04-25T05:04:47.065Z,28.29
2023-04-25T05:05:47.003Z,28.32
2023-04-25T05:06:48.961Z,28.28
2023-04-25T05:07:47.034Z,28.29
2023-04-25T05:08:47.053Z,28.28
2023-04-25T05:09:47.069Z,28.25
2023-04-25T05:10:47.098Z,28.25
2023-04-25T05:11:47.111Z,28.23
2023-04-25T05:12:47.129Z,28.26
2023-04-25T05:13:47.146Z,28.28
2023-04-25T05:14:47.193Z,28.22
2023-04-25T05:15:47.184Z,28.22
2023-04-25T05:16:47.228Z,28.23
2023-04-25T05:17:47.295Z,28.21
2023-04-25T05:18:47.259Z,28.22
2023-04-25T05:19:47.249Z,28.21
2023-04-25T05:20:47.289Z,28.19
2023-04-25T05:21:47.283Z,28.15
2023-04-25T05:22:47.323Z,28.17
2023-04-25T05:23:47.317Z,28.19
2023-04-25T05:24:47.380Z,28.19
2023-04-25T05:25:47.423Z,28.20
2023-04-25T05:26:48.310Z,28.19
2023-04-25T05:27:47.471Z,28.35
2023-04-25T05:28:47.472Z,28.43
2023-04-25T05:29:47.446Z,28.35
2023-04-25T05:30:47.763Z,28.34
2023-04-25T05:31:47.509Z,28.62
2023-04-25T05:32:48.303Z,30.17
2023-04-25T05:33:54.257Z,30.62
2023-04-25T05:34:47.580Z,31.19
2023-04-25T05:35:47.549Z,31.15
2023-04-25T05:36:47.543Z,31.06
2023-04-25T05:37:47.754Z,31.55
2023-04-25T05:38:47.514Z,31.41
2023-04-25T05:39:47.534Z,31.65
2023-04-25T05:40:48.265Z,31.95
2023-04-25T05:41:47.512Z,31.78
2023-04-25T05:42:47.794Z,32.22
2023-04-25T05:43:47.524Z,32.29
2023-04-25T05:44:47.498Z,32.31
2023-04-25T05:45:50.388Z,32.30
2023-04-25T05:46:47.437Z,32.19
2023-04-25T05:47:47.769Z,32.34
2023-04-25T05:48:47.437Z,32.37
2023-04-25T05:49:47.419Z,32.05
2023-04-25T05:50:47.775Z,31.65
2023-04-25T05:51:47.414Z,31.44
2023-04-25T05:52:47.444Z,31.34
2023-04-25T05:53:47.586Z,31.37
2023-04-25T05:54:47.387Z,31.26
2023-04-25T05:55:47.410Z,31.29
2023-04-25T05:56:47.373Z,31.11
2023-04-25T05:57:47.729Z,31.14
2023-04-25T05:58:47.448Z,31.13
2023-04-25T05:59:47.378Z,31.28
2023-04-25T06:00:47.402Z,31.15
2023-04-25T06:01:47.541Z,31.27
2023-04-25T06:02:47.447Z,31.20
2023-04-25T06:03:47.629Z,31.25
2023-04-25T06:04:47.478Z,31.12
2023-04-25T06:05:47.377Z,31.13
2023-04-25T06:06:47.328Z,31.06
2023-04-25T06:07:47.308Z,31.13
2023-04-25T06:08:47.352Z,30.81
2023-04-25T06:09:47.306Z,31.19
2023-04-25T06:10:47.287Z,31.83
2023-04-25T06:11:47.315Z,31.53
2023-04-25T06:12:47.303Z,31.29
2023-04-25T06:13:47.289Z,31.43
2023-04-25T06:14:47.272Z,31.38
2023-04-25T06:15:47.303Z,31.10
2023-04-25T06:16:47.749Z,31.18
2023-04-25T06:17:47.285Z,31.10
2023-04-25T06:18:47.222Z,31.06
2023-04-25T06:19:47.216Z,30.84
2023-04-25T06:20:47.225Z,30.96
2023-04-25T06:21:47.252Z,30.81
2023-04-25T06:22:47.224Z,31.09
2023-04-25T06:23:47.210Z,30.89
2023-04-25T06:24:47.180Z,31.12
2023-04-25T06:25:47.271Z,31.22
2023-04-25T06:26:47.283Z,31.15
2023-04-25T06:27:47.160Z,31.00
2023-04-25T06:28:47.174Z,31.02
2023-04-25T06:29:47.168Z,31.43
2023-04-25T06:30:47.162Z,30.97
2023-04-25T06:31:47.180Z,30.51
2023-04-25T06:32:47.187Z,30.67
2023-04-25T06:33:47.121Z,30.59
2023-04-25T06:34:47.109Z,30.64
2023-04-25T06:35:47.111Z,30.54
2023-04-25T06:36:47.104Z,30.43
2023-04-25T06:37:47.319Z,31.00
2023-04-25T06:40:06.512Z,31.69
2023-04-25T06:41:06.291Z,32.33
2023-04-25T06:42:06.304Z,31.80
2023-04-25T06:43:06.479Z,31.31
2023-04-25T06:44:06.256Z,31.37
2023-04-25T06:45:06.247Z,31.32
2023-04-25T06:46:06.277Z,31.33
2023-04-25T06:47:06.355Z,31.41
2023-04-25T06:48:06.342Z,31.34
2023-04-25T06:49:06.230Z,31.32
2023-04-25T06:50:06.260Z,31.31
2023-04-25T06:51:06.240Z,31.21
2023-04-25T06:52:06.248Z,31.15
2023-04-25T06:53:06.198Z,31.05
2023-04-25T06:54:06.172Z,30.98
2023-04-25T06:55:06.208Z,30.92
2023-04-25T06:56:06.513Z,30.86
2023-04-25T06:57:06.187Z,30.82
2023-04-25T06:58:06.194Z,30.91
2023-04-25T06:59:06.146Z,31.09
2023-04-25T07:00:08.981Z,31.10
2023-04-25T07:01:06.238Z,31.05
2023-04-25T07:02:06.115Z,31.08
2023-04-25T07:03:06.310Z,30.96
2023-04-25T07:04:06.336Z,30.89
2023-04-25T07:05:06.190Z,30.95
2023-04-25T07:06:06.117Z,31.02
2023-04-25T07:07:06.246Z,31.09
2023-04-25T07:08:06.165Z,31.02
2023-04-25T07:09:06.096Z,31.05
2023-04-25T07:10:06.090Z,31.06
2023-04-25T07:11:06.082Z,31.09
2023-04-25T07:12:06.068Z,31.13
2023-04-25T07:13:06.989Z,31.23
2023-04-25T07:14:06.070Z,31.14
2023-04-25T07:15:06.110Z,31.12
2023-04-25T07:16:06.577Z,31.15
2023-04-25T07:17:06.078Z,31.26
2023-04-25T07:18:08.024Z,31.23
2023-04-25T07:19:06.040Z,31.16
2023-04-25T07:20:06.018Z,31.15
2023-04-25T07:21:06.045Z,31.18
2023-04-25T07:22:06.024Z,31.21
2023-04-25T07:23:06.022Z,31.33
2023-04-25T07:24:05.995Z,31.39
2023-04-25T07:25:06.021Z,31.35
2023-04-25T07:26:06.050Z,31.36
2023-04-25T07:27:05.980Z,31.35
2023-04-25T07:28:05.989Z,31.33
2023-04-25T07:29:05.972Z,31.28
2023-04-25T07:30:06.020Z,31.29
2023-04-25T07:31:06.028Z,31.41
2023-04-25T07:32:05.988Z,31.67
2023-04-25T07:33:06.536Z,31.85
2023-04-25T07:34:05.989Z,33.25
2023-04-25T07:35:05.999Z,32.88
2023-04-25T07:36:06.519Z,32.86
2023-04-25T07:37:06.495Z,34.03
2023-04-25T07:38:05.993Z,33.80
2023-04-25T07:39:05.946Z,33.61
2023-04-25T07:40:05.891Z,33.04
2023-04-25T07:41:06.004Z,32.38
2023-04-25T07:42:05.894Z,32.41
2023-04-25T07:43:05.860Z,32.45
2023-04-25T07:44:05.868Z,32.44
2023-04-25T07:45:05.870Z,32.44
2023-04-25T07:46:05.983Z,32.32
2023-04-25T07:47:05.929Z,32.20
2023-04-25T07:48:06.070Z,31.98
2023-04-25T07:49:05.851Z,32.14
2023-04-25T07:50:05.834Z,31.83
2023-04-25T07:51:05.816Z,31.56
2023-04-25T07:52:05.825Z,31.55
2023-04-25T07:53:06.053Z,31.62
2023-04-25T07:54:07.542Z,31.81
2023-04-25T07:55:06.585Z,31.62
2023-04-25T07:56:06.519Z,31.96
2023-04-25T07:57:05.863Z,31.74
2023-04-25T07:58:06.580Z,32.43
2023-04-25T07:59:05.852Z,32.56
2023-04-25T08:00:05.838Z,32.25
2023-04-25T08:01:05.977Z,32.41
2023-04-25T08:02:05.897Z,32.22
2023-04-25T08:03:06.733Z,32.34
2023-04-25T08:04:06.084Z,32.45
2023-04-25T08:05:06.040Z,32.50
2023-04-25T08:06:08.176Z,32.32
2023-04-25T08:07:06.796Z,32.42
2023-04-25T08:08:05.841Z,32.39
2023-04-25T08:09:06.040Z,32.24
2023-04-25T08:10:06.057Z,32.09
2023-04-25T08:11:06.074Z,32.04
2023-04-25T08:12:05.805Z,32.30
2023-04-25T08:13:05.817Z,32.57
2023-04-25T08:14:05.789Z,32.50
2023-04-25T08:15:05.883Z,32.58
2023-04-25T08:16:06.593Z,32.52
2023-04-25T08:17:05.915Z,32.37
2023-04-25T08:18:05.811Z,32.79
2023-04-25T08:19:06.017Z,32.38
2023-04-25T08:20:05.760Z,32.68
2023-04-25T08:21:06.047Z,32.93
2023-04-25T08:22:05.739Z,33.12
2023-04-25T08:23:05.728Z,33.41
2023-04-25T08:24:05.907Z,33.14
2023-04-25T08:25:05.696Z,33.31
2023-04-25T08:26:05.756Z,33.50
2023-04-25T08:27:05.711Z,33.17
2023-04-25T08:28:05.720Z,32.83
2023-04-25T08:29:06.062Z,32.75
2023-04-25T08:30:05.756Z,32.74
2023-04-25T08:31:05.731Z,33.29
2023-04-25T08:32:06.551Z,33.74
2023-04-25T08:33:05.695Z,33.87
2023-04-25T08:34:05.685Z,33.60
2023-04-25T08:35:05.651Z,33.50
2023-04-25T08:36:05.739Z,33.31
2023-04-25T08:37:05.653Z,33.02
2023-04-25T08:38:05.641Z,32.74
2023-04-25T08:39:06.024Z,33.05
2023-04-25T08:40:06.557Z,33.71
2023-04-25T08:41:06.545Z,33.78
2023-04-25T08:42:05.732Z,33.90
2023-04-25T08:43:08.518Z,33.93
2023-04-25T08:44:06.549Z,33.32
2023-04-25T08:46:06.594Z,32.86
2023-04-25T08:47:05.713Z,32.85
2023-04-25T08:48:05.567Z,32.82
2023-04-25T08:49:06.636Z,32.82
2023-04-25T08:50:05.553Z,32.71
2023-04-25T08:51:06.028Z,32.59
2023-04-25T08:52:05.542Z,32.56
2023-04-25T08:53:05.554Z,32.34
2023-04-25T08:54:10.398Z,32.40
2023-04-25T08:55:06.618Z,32.36
2023-04-25T08:56:05.578Z,32.10
2023-04-25T08:57:06.652Z,31.92
2023-04-25T08:58:07.551Z,31.74
2023-04-25T08:59:06.065Z,31.67
2023-04-25T09:00:05.549Z,31.69
2023-04-25T09:01:05.598Z,31.84
2023-04-25T09:02:05.601Z,31.71
2023-04-25T09:03:05.716Z,31.56
2023-04-25T09:04:05.772Z,31.56
2023-04-25T09:05:06.538Z,31.40
2023-04-25T09:06:05.544Z,31.36
2023-04-25T09:07:05.553Z,31.11
2023-04-25T09:08:05.562Z,31.62
2023-04-25T09:09:06.093Z,31.70
2023-04-25T09:10:05.536Z,31.70
2023-04-25T09:11:05.564Z,31.57
2023-04-25T09:12:05.569Z,31.42
2023-04-25T09:13:05.567Z,31.18
2023-04-25T09:14:05.639Z,31.21
2023-04-25T09:15:05.642Z,31.12
2023-04-25T09:16:05.567Z,31.19
2023-04-25T09:17:05.894Z,31.38
2023-04-25T09:18:05.660Z,31.27
2023-04-25T09:19:05.619Z,31.17
2023-04-25T09:20:05.583Z,31.16
2023-04-25T09:21:12.581Z,30.97
2023-04-25T09:22:06.669Z,31.05
2023-04-25T09:23:05.576Z,31.41
2023-04-25T09:24:05.684Z,31.38
2023-04-25T09:25:05.581Z,30.83
2023-04-25T09:26:05.546Z,30.44
2023-04-25T09:27:05.589Z,30.48
2023-04-25T09:28:05.595Z,30.51
2023-04-25T09:29:05.551Z,30.69
2023-04-25T09:30:05.570Z,30.82
2023-04-25T09:31:06.036Z,31.31
2023-04-25T09:32:06.131Z,31.64
2023-04-25T09:33:05.661Z,31.39
2023-04-25T09:34:07.066Z,31.71
2023-04-25T09:35:06.343Z,32.01
2023-04-25T09:36:06.067Z,31.99
2023-04-25T09:37:05.541Z,32.10
2023-04-25T09:38:06.100Z,32.15
2023-04-25T09:39:05.612Z,32.30
2023-04-25T09:40:06.109Z,32.21
2023-04-25T09:41:06.940Z,31.96
2023-04-25T09:42:05.581Z,32.02
2023-04-25T09:43:05.628Z,31.90
2023-04-25T09:44:05.465Z,31.86
2023-04-25T09:45:05.452Z,31.87
2023-04-25T09:46:06.229Z,31.96
2023-04-25T09:47:07.156Z,31.98
2023-04-25T09:48:05.766Z,32.00
2023-04-25T09:49:06.130Z,31.97
2023-04-25T09:50:05.650Z,31.62
2023-04-25T09:51:05.650Z,31.35
2023-04-25T09:52:06.229Z,31.16
2023-04-25T09:53:05.655Z,31.10
2023-04-25T09:54:05.668Z,31.07
2023-04-25T09:55:05.733Z,30.90
2023-04-25T09:56:05.672Z,31.07
2023-04-25T09:57:06.077Z,31.17
2023-04-25T09:58:05.685Z,31.39
2023-04-25T09:59:05.743Z,31.61
2023-04-25T10:00:05.684Z,31.36
2023-04-25T10:01:05.676Z,31.50
2023-04-25T10:02:05.711Z,31.63
2023-04-25T10:03:05.711Z,30.78
2023-04-25T10:04:06.172Z,30.73
2023-04-25T10:05:05.783Z,30.56
2023-04-25T10:06:05.699Z,30.26
2023-04-25T10:07:06.060Z,30.24
2023-04-25T10:08:05.965Z,30.06
2023-04-25T10:09:06.722Z,29.92
2023-04-25T10:10:05.814Z,29.88
2023-04-25T10:11:05.771Z,29.62
2023-04-25T10:12:05.870Z,29.57
2023-04-25T10:13:05.786Z,29.50
2023-04-25T10:14:05.751Z,29.37
2023-04-25T10:15:06.168Z,29.40
2023-04-25T10:16:05.997Z,29.34
2023-04-25T10:17:05.777Z,29.23
2023-04-25T10:18:05.820Z,29.37
2023-04-25T10:19:05.765Z,29.44
2023-04-25T10:20:07.572Z,29.56
2023-04-25T10:21:05.823Z,29.56
2023-04-25T10:22:07.561Z,29.61
2023-04-25T10:23:05.848Z,29.85
2023-04-25T10:24:05.881Z,30.09
2023-04-25T10:25:05.886Z,30.30
2023-04-25T10:26:06.614Z,31.00
2023-04-25T10:27:06.064Z,30.75
2023-04-25T10:28:06.648Z,30.77
2023-04-25T10:29:05.963Z,31.77
2023-04-25T10:30:05.969Z,32.32
2023-04-25T10:31:06.047Z,32.22
2023-04-25T10:32:06.066Z,32.67
2023-04-25T10:33:05.983Z,32.70
2023-04-25T10:34:06.141Z,32.71
2023-04-25T10:35:06.072Z,31.23
2023-04-25T10:36:06.075Z,30.82
2023-04-25T10:37:06.177Z,30.98
2023-04-25T10:38:06.218Z,31.08
2023-04-25T10:39:06.216Z,30.90
2023-04-25T10:40:06.211Z,30.79
2023-04-25T10:41:06.239Z,30.69
2023-04-25T10:42:06.565Z,30.71
2023-04-25T10:43:07.077Z,30.68
2023-04-25T10:44:06.226Z,30.43
2023-04-25T10:45:06.302Z,30.32
2023-04-25T10:46:06.376Z,30.22
2023-04-25T10:47:06.467Z,30.37
2023-04-25T10:48:06.427Z,30.32
2023-04-25T10:49:06.437Z,30.32
2023-04-25T10:50:06.567Z,30.25
2023-04-25T10:51:06.482Z,30.14
2023-04-25T10:52:06.552Z,30.00
2023-04-25T10:53:06.548Z,29.89
2023-04-25T10:54:06.670Z,29.80
2023-04-25T10:55:06.634Z,29.70
2023-04-25T10:56:08.201Z,29.59
2023-04-25T10:57:06.747Z,29.47
2023-04-25T10:58:06.727Z,29.30
2023-04-25T10:59:06.749Z,29.33
2023-04-25T11:00:06.762Z,29.35
2023-04-25T11:01:06.776Z,29.48
2023-04-25T11:02:06.930Z,29.55
2023-04-25T11:03:07.025Z,29.91
2023-04-25T11:04:07.237Z,29.73
2023-04-25T11:05:06.878Z,30.04
2023-04-25T11:06:06.836Z,30.22
2023-04-25T11:07:08.017Z,30.64
2023-04-25T11:08:08.140Z,30.62
2023-04-25T11:09:15.484Z,30.22
2023-04-25T11:10:07.582Z,29.80
2023-04-25T11:11:07.134Z,29.51
2023-04-25T11:12:07.616Z,29.49
2023-04-25T11:13:07.171Z,29.38
2023-04-25T11:14:07.154Z,29.38
2023-04-25T11:15:07.620Z,29.30
2023-04-25T11:16:12.593Z,29.38
2023-04-25T11:17:08.670Z,30.10
2023-04-25T11:18:08.211Z,32.13
2023-04-25T11:19:07.291Z,31.99
2023-04-25T11:20:07.106Z,32.99
2023-04-25T11:21:07.125Z,32.68
2023-04-25T11:22:07.137Z,31.84
2023-04-25T11:23:07.098Z,31.82
2023-04-25T11:24:07.118Z,31.41
2023-04-25T11:25:07.206Z,31.25
2023-04-25T11:26:07.257Z,31.07
2023-04-25T11:27:08.153Z,30.97
2023-04-25T11:28:08.134Z,30.92
2023-04-25T11:29:08.120Z,30.86
2023-04-25T11:30:07.484Z,30.80
2023-04-25T11:31:07.544Z,30.93
2023-04-25T11:32:09.183Z,30.86
2023-04-25T11:33:07.719Z,30.86
2023-04-25T11:34:07.732Z,30.79
2023-04-25T11:35:07.768Z,30.73
2023-04-25T11:36:07.750Z,30.71
2023-04-25T11:37:07.771Z,30.64
2023-04-25T11:38:07.840Z,30.65
2023-04-25T11:39:07.788Z,30.57
2023-04-25T11:40:07.828Z,30.41
2023-04-25T11:41:07.840Z,30.32
2023-04-25T11:42:08.897Z,30.23
2023-04-25T11:43:08.816Z,30.09
2023-04-25T11:44:07.811Z,29.77
2023-04-25T11:45:08.191Z,29.64
2023-04-25T11:46:07.831Z,29.69
2023-04-25T11:47:07.804Z,29.74
2023-04-25T11:48:07.840Z,29.53
2023-04-25T11:49:07.790Z,29.44
2023-04-25T11:50:07.766Z,29.25
2023-04-25T11:51:07.812Z,29.14
2023-04-25T11:52:07.778Z,28.91
2023-04-25T11:53:07.753Z,28.67
2023-04-25T11:54:07.780Z,28.40
2023-04-25T11:55:08.984Z,28.30
2023-04-25T11:56:07.924Z,28.13
2023-04-25T11:57:07.956Z,28.09
2023-04-25T11:58:08.165Z,27.89
2023-04-25T11:59:08.261Z,28.05
2023-04-25T12:00:08.110Z,27.86
2023-04-25T12:01:08.172Z,27.88
2023-04-25T12:02:08.198Z,27.84
2023-04-25T12:03:08.342Z,27.74
2023-04-25T12:04:08.336Z,27.54
2023-04-25T12:05:29.383Z,27.42
2023-04-25T12:06:09.413Z,27.32
2023-04-25T12:07:08.281Z,27.19
2023-04-25T12:08:08.274Z,27.03
2023-04-25T12:09:08.249Z,26.88
2023-04-25T12:10:08.633Z,26.89
2023-04-25T12:11:08.356Z,26.76
2023-04-25T12:12:08.220Z,26.65
2023-04-25T12:13:08.229Z,26.35
2023-04-25T12:14:08.269Z,26.30
2023-04-25T12:15:08.324Z,26.28
2023-04-25T12:16:08.476Z,26.23
2023-04-25T12:17:08.385Z,26.21
2023-04-25T12:18:08.535Z,26.50
2023-04-25T12:19:08.482Z,26.55
2023-04-25T12:20:08.737Z,27.77
2023-04-25T12:21:08.539Z,28.79
2023-04-25T12:22:08.523Z,27.96
2023-04-25T12:23:08.642Z,28.04
2023-04-25T12:24:08.543Z,28.07
2023-04-25T12:25:08.529Z,27.84
2023-04-25T12:26:08.545Z,27.84
2023-04-25T12:27:08.549Z,27.76
2023-04-25T12:28:08.578Z,27.37
2023-04-25T12:29:08.583Z,27.25
2023-04-25T12:30:08.926Z,26.29
2023-04-25T12:31:08.711Z,26.07
2023-04-25T12:32:08.703Z,26.22
2023-04-25T12:33:08.759Z,26.40
2023-04-25T12:34:08.747Z,26.25
2023-04-25T12:35:08.717Z,26.14
2023-04-25T12:36:08.777Z,26.18
2023-04-25T12:37:08.724Z,26.00
2023-04-25T12:38:08.776Z,26.03
2023-04-25T12:39:08.803Z,25.87
2023-04-25T12:40:08.848Z,25.81
2023-04-25T12:41:08.854Z,25.68
2023-04-25T12:42:09.797Z,25.54
2023-04-25T12:43:08.955Z,25.45
2023-04-25T12:44:09.041Z,25.68
2023-04-25T12:45:09.107Z,25.90
2023-04-25T12:46:09.312Z,26.00
2023-04-25T12:47:09.314Z,25.82
2023-04-25T12:48:10.136Z,25.98
2023-04-25T12:49:18.758Z,26.01
2023-04-25T12:50:10.304Z,25.88
2023-04-25T12:51:09.416Z,26.25
2023-04-25T12:52:09.482Z,26.03
2023-04-25T12:53:09.287Z,25.99
2023-04-25T12:54:09.315Z,25.45
2023-04-25T12:55:09.409Z,25.59